AirNav   Pilot Hours Calculator
 
 891 users online  

F62 Hayfork Airport
Hayfork, California, USA

GOING TO HAYFORK?


FAA INFORMATION EFFECTIVE 28 FEBRUARY 2019

Location

FAA Identifier: F62
Lat/Long: 40-32-49.2000N / 123-10-46.7000W
40-32.820000N / 123-10.778333W
40.5470000 / -123.1796389
(estimated)
Elevation: 2333.8 ft. / 711.3 m (surveyed)
Variation: 17E (1985)
From city: 1 mile S of HAYFORK, CA
Time zone: UTC -8 (UTC -7 during Daylight Saving Time)
Zip code: 96041

Airport Operations

Airport use: Open to the public
Activation date: 07/1970
Control tower: no
ARTCC: OAKLAND CENTER
FSS: RANCHO MURIETA FLIGHT SERVICE STATION
NOTAMs facility: RIU (NOTAM-D service available)
Attendance: UNATNDD
Wind indicator: lighted
Segmented circle: yes
Lights: ACTVT MIRL RWY 07/25 - CTAF. MIRL RWY 07/25 OTS INDEF
Beacon: white-green (lighted land airport)
DUSK TO DAWN. OTS INDEF

Airport Communications

CTAF/UNICOM: 122.8
WX AWOS-3 at O54 (17 nm NE): 120.850 (530-623-3810)

Airport Services

Parking: tiedowns
Airframe service: MINOR
Powerplant service: MINOR
Bottled oxygen: NONE
Bulk oxygen: NONE

Runway Information

Runway 7/25

Dimensions: 4100 x 60 ft. / 1250 x 18 m
Surface: asphalt, in fair condition
Weight bearing capacity: 
Single wheel: 12.5
Runway edge lights: medium intensity
Gradient: EAST
RUNWAY 7  RUNWAY 25
Latitude: 40-32.806962N40-32.831865N
Longitude: 123-11.220862W123-10.336328W
Elevation: 2315.6 ft.2333.8 ft.
Gradient: 0.4% UP0.4%
Traffic pattern: leftright
Runway heading: 070 magnetic, 087 true250 magnetic, 267 true
Markings: basic, in fair conditionbasic, in fair condition
Runway end identifier lights: nono
Touchdown point: yes, no lightsyes, no lights
Obstructions: 13 ft. tree, 330 ft. from runway, 65 ft. right of centerline, 10:1 slope to clear43 ft. tree, 850 ft. from runway, 15:1 slope to clear

Airport Ownership and Management from official FAA records

Ownership: Publicly-owned
Owner: COUNTY OF TRINITY
PO BOX 2490
WEAVERVILLE, CA 96093-0476
Phone 530-623-1365
Manager: RICK TIPPETT
PO BOX 2490
WEAVERVILLE, CA 96093-0476
Phone 530-623-1365
DIRECTOR OF TRANSPORTATION; OFFICE IN WEAVERVILLE.

Airport Operational Statistics

Aircraft based on the field: 4
Single engine airplanes: 4
    
Aircraft operations: avg 34/day *
96% transient general aviation
4% local general aviation
* for 12-month period ending 31 December 2016

Additional Remarks

HIGH TERRAIN ALL QUADRANTS.
NOISE ABATEMENT PROCEDURES IN EFFECT N, NE & S OF ARPT.
INTERMITTENTLY CLOSED WINTERS DUE TO SNOW. CTC COUNTY TRANSPORTATION OFFICE FOR INFO 530-623-1365.

Instrument Procedures

There are no published instrument procedures at F62.

Some nearby airports with instrument procedures:

KRDD - Redding Municipal Airport (40 nm E)
KFOT - Rohnerville Airport (43 nm W)
KEKA - Murray Field Airport (45 nm W)
KRBL - Red Bluff Municipal Airport (49 nm SE)
KACV - California Redwood Coast-Humboldt County Airport (49 nm NW)
 
Loc | Ops | Rwys | IFR | FBO | Links
Com | Nav | Svcs | Stats | Notes
Area around F62 (Hayfork Airport)
 
Road maps at: MapQuest Bing Google
 
Aerial photo
WARNING: Photo may not be current or correct
Aerial photo of F62 (Hayfork Airport)
Do you have a better or more recent aerial photo of Hayfork Airport that you would like to share? If so, please send us your photo.

 
Sectional chart

 
Airport distance calculator
Flying to Hayfork Airport? Find the distance to fly.

From to F62

Sunrise and sunset
Times for 25-Mar-2019
 Local
(UTC-7)
 Zulu
(UTC)
Morning civil twilight06:4113:41
Sunrise07:0914:09
Sunset19:2902:29
Evening civil twilight19:5602:56

Current date and time
Zulu (UTC)  26-Mar-2019 01:39:29
Local (UTC-7)  25-Mar-2019 18:39:29
 
METAR
KO86 
34nm NE 
260115Z AUTO 00000KT 10SM FEW070 05/04 A3002 RMK AO1
KRDD 
40nm E 
260053Z 29003KT 8SM FEW032 BKN050 OVC060 11/09 A3003 RMK AO2 RAE33 SLP168 P0001 T01060094
KFOT 
49nm W 
260115Z AUTO 23004KT 10SM SCT037 BKN044 OVC050 09/09 A3004 RMK AO1
KRBL 
49nm SE 
260107Z AUTO 16010KT 10SM FEW020 SCT025 OVC070 12/09 A3003 RMK AO2 RAE00 P0000 T01220094
KACV 
49nm NW 
260053Z AUTO 22012KT 10SM FEW030 BKN049 BKN060 12/08 A3003 RMK AO2 SLP176 T01170083
TAF
KRDD 
40nm E 
251720Z 2518/2618 06005KT 3SM -RA BR OVC020 FM260300 17004KT P6SM OVC050
KRBL 
49nm SE 
251720Z 2518/2618 12009KT 5SM RA BR SCT035 BKN045 OVC060 FM260300 17006KT P6SM OVC050
KACV 
49nm NW 
260030Z 2601/2624 22012KT P6SM -SHRA FEW025 BKN040 OVC050 FM260300 14005KT P6SM VCSH SCT035 BKN060 FM260700 14003KT P6SM SCT035 OVC250 FM261200 12003KT P6SM BKN040 OVC200 FM261900 22008KT P6SM SCT035 BKN150
NOTAMs
Click for the latest NOTAMs
NOTAMs are issued by the DoD/FAA and will open in a separate window not controlled by AirNav.

 

 
 

Would you like to see your business listed on this page?

 If your business provides an interesting product or service to pilots, flight crews, aircraft, or users of the Hayfork Airport, you should consider listing it here.  To start the listing process, click on the button below
 
Add a business
 

Other Pages about Hayfork Airport

Update a link
 
Copyright © AirNav, LLC. All rights reserved. Privacy Policy  Contact